Time;durP1;ratioP1;P1;durP2;ratioP2;P2;SDS_P1;SDS_P2;PMS_P1;PMS_P2;Temp;Humidity;BMP_temperature;BMP_pressure;BME280_temperature;BME280_humidity;BME280_pressure;Samples;Min_cycle;Max_cycle;Signal;HPM_P1;HPM_P2
2022/09/03 00:00:09;;;;;;;2.00;1.80;;;;;;;18.84;47.72;101148.00;5025787;28;20036;-69
2022/09/03 00:02:37;;;;;;;4.35;1.75;;;;;;;18.89;47.40;101137.84;5027419;28;20025;-70
2022/09/03 00:05:18;;;;;;;7.68;1.92;;;;;;;18.84;48.12;101148.00;5031296;28;20033;-70
2022/09/03 00:08:05;;;;;;;3.00;2.00;;;;;;;18.86;47.58;101141.13;5017239;28;20078;-69
2022/09/03 00:10:45;;;;;;;5.07;2.10;;;;;;;18.81;47.70;101140.16;5021018;28;20110;-69
2022/09/03 00:13:21;;;;;;;5.43;2.22;;;;;;;18.84;47.60;101125.81;5023951;28;20037;-71
2022/09/03 00:15:48;;;;;;;3.65;2.00;;;;;;;18.82;47.63;101125.19;5021286;28;20033;-69
2022/09/03 00:18:19;;;;;;;3.95;1.95;;;;;;;18.76;47.96;101123.38;5028726;28;20056;-68
2022/09/03 00:20:51;;;;;;;5.70;2.00;;;;;;;18.73;47.99;101135.00;5020943;28;20116;-68
2022/09/03 00:23:23;;;;;;;5.18;2.45;;;;;;;18.70;47.98;101127.16;5028672;28;20029;-68
2022/09/03 00:26:03;;;;;;;4.50;1.75;;;;;;;18.69;48.21;101131.00;5025982;28;20049;-69
2022/09/03 00:28:44;;;;;;;8.90;1.98;;;;;;;18.64;48.36;101130.91;5030271;28;20048;-70
2022/09/03 00:31:25;;;;;;;7.72;2.00;;;;;;;18.64;48.35;101128.13;5027757;28;20064;-69
2022/09/03 00:33:57;;;;;;;3.95;1.98;;;;;;;18.65;48.48;101132.56;5015751;28;20374;-69
2022/09/03 00:36:31;;;;;;;4.53;2.10;;;;;;;18.55;48.69;101126.78;5011149;28;20117;-69
2022/09/03 00:38:57;;;;;;;6.95;1.98;;;;;;;18.57;48.55;101121.88;5024770;28;20045;-69
2022/09/03 00:41:39;;;;;;;;;;;;;;;18.59;48.64;101126.09;5027305;28;20075;-68
2022/09/03 00:44:11;;;;;;;5.05;2.20;;;;;;;18.46;48.87;101123.53;5017512;28;19918;-68
2022/09/03 00:47:09;;;;;;;4.25;2.42;;;;;;;18.41;49.08;101114.28;5024196;28;20091;-68
2022/09/03 00:49:43;;;;;;;7.95;2.10;;;;;;;18.34;49.10;101113.53;5023838;28;20369;-68
2022/09/03 00:52:43;;;;;;;8.05;2.35;;;;;;;18.33;49.37;101122.94;5027006;28;20149;-68
2022/09/03 00:55:21;;;;;;;4.13;2.30;;;;;;;18.27;49.51;101129.41;5023569;28;20494;-68
2022/09/03 00:58:14;;;;;;;11.00;2.22;;;;;;;18.15;49.77;101128.56;5028335;28;20041;-68
2022/09/03 01:00:42;;;;;;;2.63;2.08;;;;;;;18.11;49.98;101128.22;5022711;28;20390;-69
2022/09/03 01:03:16;;;;;;;3.90;1.70;;;;;;;18.11;50.20;101139.31;5011673;28;20125;-68
2022/09/03 01:05:53;;;;;;;6.40;2.20;;;;;;;18.05;50.19;101129.19;5015122;28;20037;-68
2022/09/03 01:08:52;;;;;;;5.63;2.40;;;;;;;18.01;50.54;101129.88;5025671;28;20033;-68
2022/09/03 01:11:46;;;;;;;7.30;2.40;;;;;;;17.96;50.36;101132.50;5024387;28;20079;-69
2022/09/03 01:14:35;;;;;;;7.05;2.08;;;;;;;17.94;50.51;101132.75;5027674;28;20041;-69
2022/09/03 01:17:06;;;;;;;6.65;2.33;;;;;;;17.89;50.57;101134.56;5028119;28;20489;-69
2022/09/03 01:19:35;;;;;;;4.03;2.33;;;;;;;17.83;50.79;101127.19;5027460;28;20029;-69
2022/09/03 01:22:19;;;;;;;11.27;2.20;;;;;;;17.82;50.50;101131.06;5024039;28;20033;-69
2022/09/03 01:24:52;;;;;;;5.32;2.40;;;;;;;17.82;51.04;101142.16;5019110;28;20033;-69
2022/09/03 01:27:20;;;;;;;9.50;2.63;;;;;;;17.80;51.10;101139.59;5026651;28;20037;-68
2022/09/03 01:29:54;;;;;;;3.03;2.42;;;;;;;17.70;50.89;101141.25;5015718;28;20064;-68
2022/09/03 01:33:02;;;;;;;4.03;2.00;;;;;;;17.62;51.48;101142.41;5010230;28;20109;-68
2022/09/03 01:35:43;;;;;;;6.63;2.20;;;;;;;17.59;51.65;101140.13;5000834;28;20488;-69
2022/09/03 01:38:19;;;;;;;4.93;2.47;;;;;;;17.57;51.52;101144.22;5022419;28;20034;-68
2022/09/03 01:44:21;;;;;;;5.88;2.20;;;;;;;17.41;51.92;101134.66;5022352;28;20095;-68
2022/09/03 01:46:57;;;;;;;3.90;2.17;;;;;;;17.47;52.15;101130.09;5012571;28;20124;-68
2022/09/03 01:49:35;;;;;;;9.15;2.53;;;;;;;17.43;52.24;101126.09;5012400;28;20037;-68
2022/09/03 01:52:11;;;;;;;;;;;;;;;17.35;52.38;101135.53;5023052;28;20042;-68
2022/09/03 01:54:50;;;;;;;3.00;2.50;;;;;;;17.39;52.44;101130.44;5010716;28;20287;-69
2022/09/03 01:57:27;;;;;;;7.25;2.53;;;;;;;17.40;52.29;101127.41;5022822;28;20048;-69
2022/09/03 02:00:13;;;;;;;11.55;2.95;;;;;;;17.32;52.63;101126.88;5015482;28;20096;-68
2022/09/03 02:02:42;;;;;;;10.65;2.40;;;;;;;17.24;52.70;101128.03;5027311;28;20041;-68
2022/09/03 02:05:13;;;;;;;12.93;2.53;;;;;;;17.22;52.78;101123.81;5023079;28;20120;-68
2022/09/03 02:07:45;;;;;;;5.13;2.55;;;;;;;17.21;52.89;101128.50;5015278;28;20419;-68
2022/09/03 02:10:17;;;;;;;4.50;2.15;;;;;;;17.14;53.17;101126.91;5022602;28;20030;-68
2022/09/03 02:12:48;;;;;;;7.35;2.15;;;;;;;17.12;53.28;101129.06;5028732;28;20403;-69
2022/09/03 02:15:17;;;;;;;4.53;2.17;;;;;;;17.07;53.52;101135.28;5029067;28;20160;-69
2022/09/03 02:17:46;;;;;;;9.50;2.38;;;;;;;16.99;53.80;101132.84;5025729;28;20481;-68
2022/09/03 02:20:18;;;;;;;4.47;2.30;;;;;;;17.04;53.61;101132.16;5024207;28;20037;-69
2022/09/03 02:22:44;;;;;;;5.25;2.20;;;;;;;17.03;53.65;101130.47;5029942;28;20071;-68
2022/09/03 02:25:09;;;;;;;9.07;2.63;;;;;;;16.91;53.98;101126.78;5027316;28;20473;-68
2022/09/03 02:27:37;;;;;;;7.30;2.73;;;;;;;16.84;54.61;101117.69;5028116;28;20029;-69
2022/09/03 02:30:03;;;;;;;6.47;2.58;;;;;;;16.92;53.78;101128.47;5026253;28;20088;-69
2022/09/03 02:32:29;;;;;;;3.00;2.38;;;;;;;16.78;54.46;101133.31;5023684;28;20026;-68
2022/09/03 02:34:55;;;;;;;4.13;2.20;;;;;;;16.82;54.30;101119.88;5021922;28;20044;-68
2022/09/03 02:37:21;;;;;;;9.23;2.50;;;;;;;16.74;54.61;101123.78;5021913;28;20283;-68
2022/09/03 02:39:47;;;;;;;5.38;2.92;;;;;;;16.73;54.45;101127.63;5026014;28;20467;-68
2022/09/03 02:42:13;;;;;;;14.10;2.60;;;;;;;16.67;54.96;101120.25;5024768;28;20124;-68
2022/09/03 02:44:49;;;;;;;3.72;2.38;;;;;;;16.57;55.43;101116.31;5022847;28;20032;-70
2022/09/03 02:47:15;;;;;;;4.20;2.47;;;;;;;16.52;55.69;101121.69;5027238;28;20559;-68
2022/09/03 02:49:40;;;;;;;10.07;2.60;;;;;;;16.47;55.76;101122.38;5023902;28;20065;-69
2022/09/03 02:52:10;;;;;;;4.37;2.90;;;;;;;16.47;55.74;101121.53;5031021;28;20488;-69
2022/09/03 02:54:38;;;;;;;4.00;2.70;;;;;;;16.45;55.70;101127.31;5030555;28;20050;-69
2022/09/03 02:57:08;;;;;;;7.93;2.90;;;;;;;16.46;55.82;101126.22;5031631;28;20048;-69
2022/09/03 02:59:34;;;;;;;7.03;2.95;;;;;;;16.47;55.79;101119.63;5026503;28;20079;-68
2022/09/03 03:01:59;;;;;;;5.00;3.10;;;;;;;16.48;56.18;101120.47;5026712;28;20393;-68
2022/09/03 03:04:25;;;;;;;5.60;2.60;;;;;;;16.34;56.59;101118.88;5020474;28;20137;-69
2022/09/03 03:06:50;;;;;;;9.00;2.93;;;;;;;16.33;56.27;101119.97;5015542;28;20363;-68
2022/09/03 03:09:16;;;;;;;5.10;3.03;;;;;;;16.32;56.56;101116.34;5017291;28;20027;-69
2022/09/03 03:11:42;;;;;;;10.32;3.30;;;;;;;16.28;56.40;101108.75;5024129;28;20040;-69
2022/09/03 03:14:07;;;;;;;9.70;3.80;;;;;;;16.30;56.56;101112.09;5023994;28;20034;-69
2022/09/03 03:16:33;;;;;;;5.43;2.53;;;;;;;16.21;56.44;101102.41;5015945;28;20053;-69
2022/09/03 03:18:59;;;;;;;8.57;2.73;;;;;;;16.20;56.69;101109.00;5026965;28;20076;-68
2022/09/03 03:21:24;;;;;;;4.60;2.45;;;;;;;16.18;56.54;101113.94;5016223;28;20052;-67
2022/09/03 03:23:50;;;;;;;6.07;3.03;;;;;;;16.15;57.00;101106.09;5024839;28;20035;-70
2022/09/03 03:26:18;;;;;;;5.70;2.67;;;;;;;16.10;57.04;101108.69;5030624;28;20041;-69
2022/09/03 03:28:45;;;;;;;5.30;3.10;;;;;;;16.10;56.94;101111.44;5028555;28;20061;-69
2022/09/03 03:31:17;;;;;;;6.05;2.92;;;;;;;16.09;57.02;101107.00;5021742;28;20084;-68
2022/09/03 03:33:43;;;;;;;9.43;3.40;;;;;;;16.03;57.38;101107.91;5016258;28;20472;-69
2022/09/03 03:36:14;;;;;;;8.53;2.87;;;;;;;16.04;57.06;101112.34;5026900;28;20037;-69
2022/09/03 03:38:41;;;;;;;2.80;2.47;;;;;;;16.04;57.30;101113.22;5023478;28;20030;-69
2022/09/03 03:41:12;;;;;;;3.80;2.90;;;;;;;16.02;57.04;101108.97;5024274;28;20060;-68
2022/09/03 03:43:38;;;;;;;6.30;2.92;;;;;;;15.94;57.56;101117.53;5015325;28;20029;-69
2022/09/03 03:46:04;;;;;;;7.40;2.50;;;;;;;15.93;57.46;101115.84;5027842;28;20094;-68
2022/09/03 03:48:29;;;;;;;5.17;2.57;;;;;;;15.98;57.32;101107.75;5028850;28;20132;-70
2022/09/03 03:50:59;;;;;;;5.60;3.17;;;;;;;15.94;57.40;101117.53;5025440;28;20115;-70
2022/09/03 03:53:26;;;;;;;7.18;3.38;;;;;;;15.86;57.53;101110.38;5014371;28;20435;-69
2022/09/03 03:55:56;;;;;;;5.93;2.97;;;;;;;15.94;57.29;101112.00;5027896;28;20033;-69
2022/09/03 03:58:22;;;;;;;6.45;2.78;;;;;;;15.84;57.56;101118.06;5029161;28;20052;-69
2022/09/03 04:00:48;;;;;;;8.68;2.75;;;;;;;15.84;57.66;101115.28;5030910;28;20029;-69
2022/09/03 04:03:14;;;;;;;6.05;2.60;;;;;;;15.83;57.59;101119.13;5029918;28;20037;-68
2022/09/03 04:05:39;;;;;;;15.53;3.33;;;;;;;15.82;58.10;101114.69;5021577;28;20038;-69
2022/09/03 04:08:05;;;;;;;11.20;2.60;;;;;;;15.82;57.77;101114.69;5025525;28;20518;-69
2022/09/03 04:10:31;;;;;;;4.60;2.80;;;;;;;15.75;58.13;101102.00;5025495;28;20022;-68
2022/09/03 04:12:56;;;;;;;10.70;2.80;;;;;;;15.73;58.28;101109.63;5030680;28;20033;-68
2022/09/03 04:15:21;;;;;;;4.27;2.63;;;;;;;15.71;58.26;101117.31;5029802;28;20045;-68
2022/09/03 04:17:47;;;;;;;3.93;2.43;;;;;;;15.64;58.26;101109.06;5029895;28;20040;-69
2022/09/03 04:20:12;;;;;;;2.63;2.43;;;;;;;15.61;58.66;101112.28;5030080;28;20025;-68
2022/09/03 04:22:37;;;;;;;2.97;2.70;;;;;;;15.64;58.59;101109.06;5028872;28;20029;-69
2022/09/03 04:25:03;;;;;;;6.40;3.07;;;;;;;15.60;58.83;101113.38;5027938;28;20081;-70
2022/09/03 04:27:28;;;;;;;17.13;2.67;;;;;;;15.65;58.78;101104.41;5026569;28;20025;-69
2022/09/03 04:29:54;;;;;;;4.63;3.17;;;;;;;15.60;58.62;101107.84;5024755;28;20022;-69
2022/09/03 04:35:03;;;;;;;3.90;2.50;;;;;;;15.54;58.73;101105.13;5027247;28;20044;-70
2022/09/03 04:37:28;;;;;;;6.60;2.80;;;;;;;15.49;59.44;101113.22;5027326;28;20443;-70
2022/09/03 04:39:54;;;;;;;7.40;2.47;;;;;;;15.52;59.15;101110.03;5027455;28;20068;-70
2022/09/03 04:42:19;;;;;;;8.90;3.07;;;;;;;15.50;59.17;101103.88;5030128;28;20110;-69
2022/09/03 04:44:44;;;;;;;7.20;2.73;;;;;;;15.50;58.80;101106.63;5025525;28;20037;-69
2022/09/03 04:47:09;;;;;;;4.73;2.80;;;;;;;15.46;58.74;101106.22;5030869;28;20451;-69
2022/09/03 04:49:35;;;;;;;4.53;2.93;;;;;;;15.54;58.77;101105.13;5023785;28;20037;-69
2022/09/03 04:52:01;;;;;;;8.57;2.57;;;;;;;15.50;58.95;101114.91;5026422;28;20044;-70
2022/09/03 04:54:27;;;;;;;4.95;2.55;;;;;;;15.50;58.70;101112.16;5021439;28;20045;-68
2022/09/03 04:56:52;;;;;;;6.43;2.50;;;;;;;15.49;58.97;101108.56;5023922;28;20030;-69
2022/09/03 04:59:18;;;;;;;4.60;2.67;;;;;;;15.47;58.76;101109.84;5026412;28;20049;-69
2022/09/03 05:01:44;;;;;;;4.00;2.55;;;;;;;15.43;58.94;101119.63;5023144;28;20040;-69
2022/09/03 05:04:09;;;;;;;8.97;2.70;;;;;;;15.48;58.64;101111.53;5026370;28;20472;-70
2022/09/03 05:06:36;;;;;;;4.73;2.53;;;;;;;15.48;58.49;101106.03;5027016;28;20056;-69
2022/09/03 05:09:02;;;;;;;6.95;2.63;;;;;;;15.51;58.45;101111.06;5024772;28;20428;-70
2022/09/03 05:11:28;;;;;;;3.20;2.40;;;;;;;15.44;58.86;101113.03;5016699;28;20041;-69
2022/09/03 05:13:55;;;;;;;6.78;2.83;;;;;;;15.45;58.83;101117.50;5021707;28;20537;-69
2022/09/03 05:16:22;;;;;;;7.78;2.35;;;;;;;15.48;58.91;101117.06;5029229;28;20034;-69
2022/09/03 05:18:51;;;;;;;5.10;2.22;;;;;;;15.42;59.16;101118.78;5023955;28;20107;-69
2022/09/03 05:21:17;;;;;;;5.25;2.53;;;;;;;15.42;59.03;101123.47;5027983;28;20029;-69
2022/09/03 05:23:45;;;;;;;5.68;2.60;;;;;;;15.49;58.82;101118.75;5007747;28;20395;-69
2022/09/03 05:26:13;;;;;;;8.93;3.08;;;;;;;15.46;59.00;101124.69;5024897;28;20033;-69
2022/09/03 05:28:40;;;;;;;4.10;2.05;;;;;;;15.48;58.98;101117.06;5028472;28;20034;-69
2022/09/03 05:31:07;;;;;;;6.47;2.33;;;;;;;15.48;58.92;101122.59;5027899;28;20034;-68
2022/09/03 05:33:34;;;;;;;8.48;2.80;;;;;;;15.49;58.91;101118.75;5028574;28;20035;-69
2022/09/03 05:36:01;;;;;;;6.88;2.65;;;;;;;15.60;58.69;101124.41;5025226;28;20045;-70
2022/09/03 05:38:26;;;;;;;5.63;2.50;;;;;;;15.60;58.27;101110.59;5024322;28;20087;-68
2022/09/03 05:40:51;;;;;;;4.67;2.37;;;;;;;15.67;58.47;101127.97;5023158;28;20030;-69
2022/09/03 05:43:17;;;;;;;3.20;2.47;;;;;;;15.68;58.67;101120.53;5025931;28;20029;-68
2022/09/03 05:45:42;;;;;;;11.80;2.83;;;;;;;15.66;58.59;101119.91;5026502;28;20087;-68
2022/09/03 05:48:07;;;;;;;6.43;2.83;;;;;;;15.68;58.31;101123.31;5029081;28;20060;-68
2022/09/03 05:50:33;;;;;;;4.17;2.20;;;;;;;15.64;58.97;101122.88;5024879;28;20029;-69
2022/09/03 05:52:59;;;;;;;6.00;2.37;;;;;;;15.78;57.92;101127.25;5030027;28;20018;-69
2022/09/03 05:55:24;;;;;;;4.00;2.57;;;;;;;15.87;57.70;101123.16;5021752;28;20449;-68
2022/09/03 05:57:52;;;;;;;5.50;2.43;;;;;;;15.85;58.16;101127.19;5029770;28;20029;-69
2022/09/03 06:00:18;;;;;;;10.52;2.35;;;;;;;15.95;57.64;101124.78;5031383;28;20033;-69
2022/09/03 06:02:50;;;;;;;4.20;2.50;;;;;;;16.04;57.57;101127.03;5028418;28;20030;-68
2022/09/03 06:05:15;;;;;;;6.88;2.60;;;;;;;16.12;57.73;101120.38;5027775;28;20045;-68
2022/09/03 06:07:41;;;;;;;5.73;2.40;;;;;;;16.19;57.68;101121.16;5028112;28;20084;-69
2022/09/03 06:10:06;;;;;;;6.73;2.27;;;;;;;16.31;56.95;101125.72;5023689;28;20356;-69
2022/09/03 06:12:32;;;;;;;6.93;2.30;;;;;;;16.29;57.16;101121.47;5027924;28;20473;-69
2022/09/03 06:14:57;;;;;;;3.67;2.40;;;;;;;16.39;56.59;101127.38;5022936;28;20045;-69
2022/09/03 06:17:23;;;;;;;9.40;2.23;;;;;;;16.37;57.07;101132.22;5030196;28;20030;-69
2022/09/03 06:19:48;;;;;;;6.93;2.80;;;;;;;16.39;56.75;101132.91;5029237;28;20472;-68
2022/09/03 06:22:13;;;;;;;3.90;2.30;;;;;;;16.48;56.43;101142.59;5025668;28;20036;-69
2022/09/03 06:24:39;;;;;;;12.17;2.57;;;;;;;16.60;55.92;101140.78;5022840;28;20611;-69
2022/09/03 06:27:04;;;;;;;14.63;2.70;;;;;;;16.53;56.47;101135.28;5029043;28;20396;-69
2022/09/03 06:29:29;;;;;;;3.03;2.17;;;;;;;16.68;56.10;101145.97;5021558;28;20116;-69
2022/09/03 06:31:55;;;;;;;6.10;2.60;;;;;;;16.75;56.02;101141.25;5028506;28;20018;-69
2022/09/03 06:34:21;;;;;;;3.67;2.47;;;;;;;16.82;55.98;101145.59;5026985;28;20122;-69
2022/09/03 06:36:47;;;;;;;6.07;2.40;;;;;;;16.93;56.01;101149.53;5025568;28;20464;-69
2022/09/03 06:39:12;;;;;;;6.17;2.63;;;;;;;17.05;55.21;101144.91;5028056;28;20037;-69
2022/09/03 06:41:38;;;;;;;9.17;2.60;;;;;;;17.08;55.85;101145.28;5025963;28;20021;-69
2022/09/03 06:44:10;;;;;;;8.50;2.92;;;;;;;17.18;54.93;101144.75;5022833;28;20033;-68
2022/09/03 06:46:43;;;;;;;9.07;3.05;;;;;;;17.29;55.41;101147.56;5021129;28;20038;-69
2022/09/03 06:49:10;;;;;;;2.55;2.17;;;;;;;17.37;54.67;101144.47;5019475;28;20026;-68
2022/09/03 06:51:37;;;;;;;3.00;1.95;;;;;;;17.49;54.71;101147.31;5013965;28;20141;-69
2022/09/03 06:54:05;;;;;;;6.75;2.63;;;;;;;17.60;54.97;101143.78;5023745;28;20432;-69
2022/09/03 06:56:31;;;;;;;5.57;2.72;;;;;;;17.64;54.61;101144.97;5030071;28;20033;-69
2022/09/03 06:58:58;;;;;;;8.20;2.55;;;;;;;17.80;54.24;101152.59;5029792;28;20503;-69
2022/09/03 07:01:27;;;;;;;4.57;2.30;;;;;;;17.96;53.54;101143.59;5030378;28;20084;-69
2022/09/03 07:03:55;;;;;;;6.72;2.15;;;;;;;18.70;52.11;101136.31;5027997;28;20064;-69
2022/09/03 07:06:20;;;;;;;10.30;2.50;;;;;;;19.21;50.05;101138.28;5020780;28;20448;-69
2022/09/03 07:08:46;;;;;;;3.90;2.53;;;;;;;19.69;49.30;101144.25;5028856;28;20293;-70
2022/09/03 07:11:18;;;;;;;5.93;2.23;;;;;;;19.87;49.02;101141.25;5027921;28;20033;-69
2022/09/03 07:13:46;;;;;;;19.80;2.78;;;;;;;19.49;49.71;101143.88;5021434;28;20041;-69
2022/09/03 07:16:21;;;;;;;5.72;1.85;;;;;;;19.05;51.08;101141.81;5024452;28;20031;-69
2022/09/03 07:18:47;;;;;;;9.13;2.20;;;;;;;18.80;51.77;101155.13;5017539;28;20176;-69
2022/09/03 07:21:19;;;;;;;7.93;2.45;;;;;;;18.58;52.43;101149.34;5017629;28;20022;-68
2022/09/03 07:23:45;;;;;;;4.40;2.10;;;;;;;18.80;52.41;101146.81;5030303;28;20025;-68
2022/09/03 07:26:15;;;;;;;7.15;2.40;;;;;;;19.62;51.51;101152.75;5029622;28;20362;-69
2022/09/03 07:28:42;;;;;;;5.20;1.88;;;;;;;19.94;49.24;101159.47;5017544;28;20504;-69
2022/09/03 07:31:18;;;;;;;7.57;2.10;;;;;;;19.92;48.70;101155.25;5029588;28;20026;-69
2022/09/03 07:33:44;;;;;;;9.57;2.25;;;;;;;20.27;47.48;101147.56;5029215;28;20033;-69
2022/09/03 07:36:15;;;;;;;7.45;2.17;;;;;;;20.25;46.74;101150.59;5025006;28;20029;-69
2022/09/03 07:38:43;;;;;;;8.20;2.80;;;;;;;20.53;46.82;101149.63;5014398;28;20033;-69
2022/09/03 07:41:10;;;;;;;5.93;2.08;;;;;;;20.65;46.77;101147.59;5021437;28;20033;-69
2022/09/03 07:43:38;;;;;;;6.90;2.08;;;;;;;20.29;47.10;101153.69;5026747;28;20480;-69
2022/09/03 07:46:05;;;;;;;9.75;2.88;;;;;;;20.16;47.12;101159.63;5026216;28;20037;-69
2022/09/03 07:48:31;;;;;;;6.18;3.33;;;;;;;20.29;47.37;101167.63;5024958;28;20030;-69
2022/09/03 07:50:59;;;;;;;6.53;2.10;;;;;;;20.40;47.02;101156.41;5024385;28;20102;-69
2022/09/03 07:53:26;;;;;;;5.90;2.30;;;;;;;20.17;46.96;101159.34;5016015;28;20444;-69
2022/09/03 07:55:51;;;;;;;8.60;2.20;;;;;;;20.23;47.70;101165.84;5021361;28;20072;-69
2022/09/03 07:58:17;;;;;;;5.37;2.43;;;;;;;20.09;46.65;101165.34;5018683;28;20066;-69
2022/09/03 08:00:42;;;;;;;5.03;2.53;;;;;;;20.15;47.26;101171.81;5029041;28;20018;-69
2022/09/03 08:03:08;;;;;;;12.07;2.93;;;;;;;20.17;47.62;101166.88;5030534;28;20033;-69
2022/09/03 08:05:35;;;;;;;3.63;1.97;;;;;;;20.26;47.37;101179.25;5021334;28;20025;-69
2022/09/03 08:08:04;;;;;;;7.25;2.95;;;;;;;20.35;47.56;101180.50;5024827;28;20030;-69
2022/09/03 08:10:31;;;;;;;5.85;2.70;;;;;;;20.47;47.13;101178.47;5029901;28;20115;-70
2022/09/03 08:12:57;;;;;;;3.22;2.33;;;;;;;20.58;47.40;101175.63;5013477;28;20033;-69
2022/09/03 08:15:23;;;;;;;9.90;3.30;;;;;;;20.56;47.05;101165.84;5023132;28;20471;-68
2022/09/03 08:17:49;;;;;;;7.82;3.10;;;;;;;20.33;47.07;101183.53;5016389;28;20036;-69
2022/09/03 08:20:14;;;;;;;4.67;2.17;;;;;;;20.52;46.90;101186.91;5020325;28;20456;-69
2022/09/03 08:22:40;;;;;;;4.63;2.80;;;;;;;20.38;46.93;101186.41;5028430;28;20029;-69
2022/09/03 08:25:06;;;;;;;10.93;2.58;;;;;;;20.50;47.53;101189.13;5027593;28;20115;-69
2022/09/03 08:27:31;;;;;;;7.65;2.60;;;;;;;20.63;47.08;101184.06;5029070;28;20025;-69
2022/09/03 08:29:56;;;;;;;10.93;2.50;;;;;;;20.76;47.13;101180.91;5022594;28;20033;-69
2022/09/03 08:32:22;;;;;;;20.70;4.03;;;;;;;20.92;47.44;101179.22;5024910;28;20369;-69
2022/09/03 08:34:47;;;;;;;7.53;2.43;;;;;;;21.00;46.70;101189.91;5028511;28;20037;-69
2022/09/03 08:37:12;;;;;;;4.77;2.37;;;;;;;20.89;47.07;101183.38;5027310;28;20029;-69
2022/09/03 08:39:38;;;;;;;78.10;8.67;;;;;;;21.00;47.05;101173.19;5028534;28;20033;-69
2022/09/03 08:42:11;;;;;;;12.63;2.97;;;;;;;21.16;47.09;101189.88;5025735;28;20035;-69
2022/09/03 08:44:46;;;;;;;5.40;2.83;;;;;;;21.22;46.53;101176.84;5030193;28;20496;-69
2022/09/03 08:47:36;;;;;;;8.27;2.58;;;;;;;21.41;46.62;101181.00;5014494;28;20030;-69
2022/09/03 08:50:24;;;;;;;5.20;2.60;;;;;;;21.41;46.26;101186.56;5014986;28;20472;-69
2022/09/03 08:53:02;;;;;;;6.55;2.58;;;;;;;21.48;46.82;101188.06;5023691;28;20025;-69
2022/09/03 08:55:32;;;;;;;5.63;2.80;;;;;;;21.71;45.53;101181.41;5023311;28;20104;-69
2022/09/03 08:58:10;;;;;;;6.03;2.80;;;;;;;21.58;45.21;101187.34;5026644;28;20029;-68
2022/09/03 09:01:00;;;;;;;10.48;2.60;;;;;;;21.75;45.34;101194.56;5020586;28;20033;-68
2022/09/03 09:03:51;;;;;;;8.38;3.00;;;;;;;21.83;44.99;101194.06;5020852;28;20040;-69
2022/09/03 09:06:43;;;;;;;7.90;2.80;;;;;;;22.21;45.66;101193.06;5014756;28;20112;-69
2022/09/03 09:09:36;;;;;;;10.75;2.78;;;;;;;22.40;44.77;101197.16;5013136;28;20033;-69
2022/09/03 09:12:16;;;;;;;4.82;2.88;;;;;;;22.50;43.97;101189.72;5030120;28;20029;-69
2022/09/03 09:15:02;;;;;;;7.05;3.25;;;;;;;22.71;43.98;101196.31;5029350;28;20477;-69
2022/09/03 09:18:01;;;;;;;8.02;2.85;;;;;;;22.83;43.88;101197.78;5021289;28;20409;-69
2022/09/03 09:20:50;;;;;;;33.72;5.55;;;;;;;22.96;43.97;101202.06;5017898;28;20055;-70
2022/09/03 09:23:22;;;;;;;7.28;2.67;;;;;;;22.98;42.14;101199.84;5028951;28;20038;-69
2022/09/03 09:25:49;;;;;;;12.00;3.33;;;;;;;23.32;42.36;101204.81;5027651;28;20507;-69
2022/09/03 09:28:21;;;;;;;5.80;2.70;;;;;;;23.58;41.63;101189.84;5032912;28;20076;-68
2022/09/03 09:30:48;;;;;;;9.02;3.05;;;;;;;23.51;41.48;101205.19;5030519;28;20109;-69
2022/09/03 09:33:15;;;;;;;7.00;2.60;;;;;;;23.62;42.18;101195.72;5023891;28;20061;-69
2022/09/03 09:35:41;;;;;;;5.60;2.55;;;;;;;23.72;41.67;101201.34;5021926;28;20025;-69
2022/09/03 09:38:08;;;;;;;5.35;2.47;;;;;;;23.99;41.75;101207.59;5028178;28;20378;-69
2022/09/03 09:40:37;;;;;;;6.53;2.60;;;;;;;24.13;41.38;101197.56;5030769;28;20030;-69
2022/09/03 09:43:09;;;;;;;11.77;3.72;;;;;;;24.21;41.12;101197.84;5021191;28;20030;-69
2022/09/03 09:45:36;;;;;;;9.40;2.97;;;;;;;24.64;39.91;101193.72;5021713;28;20021;-69
2022/09/03 09:48:09;;;;;;;9.43;2.78;;;;;;;24.78;40.01;101198.47;5032180;28;20026;-69
2022/09/03 09:50:35;;;;;;;10.40;2.63;;;;;;;24.76;40.28;101192.28;5023151;28;20427;-69
2022/09/03 09:53:13;;;;;;;14.10;2.93;;;;;;;24.90;39.82;101189.72;5030592;28;20030;-69
2022/09/03 09:55:49;;;;;;;4.22;2.55;;;;;;;25.11;39.41;101194.16;5028466;28;20052;-69
2022/09/03 09:58:14;;;;;;;6.13;3.03;;;;;;;25.07;38.38;101188.28;5026505;28;20108;-69
2022/09/03 10:00:41;;;;;;;12.77;3.03;;;;;;;24.96;39.78;101185.81;5026308;28;20121;-69
2022/09/03 10:03:12;;;;;;;5.63;2.70;;;;;;;25.11;39.34;101178.19;5031916;28;20064;-69
2022/09/03 10:05:39;;;;;;;4.22;2.67;;;;;;;25.44;38.71;101182.34;5020734;28;20112;-69
2022/09/03 10:08:24;;;;;;;4.47;2.80;;;;;;;25.25;38.01;101184.06;5032661;28;20056;-69
2022/09/03 10:10:50;;;;;;;6.63;3.15;;;;;;;24.89;38.98;101174.03;5027666;28;20491;-69
2022/09/03 10:13:40;;;;;;;6.65;2.70;;;;;;;24.97;38.54;101165.06;5030443;28;20040;-69
2022/09/03 10:16:18;;;;;;;6.07;3.08;;;;;;;25.42;37.37;101173.34;5016970;28;20048;-69
2022/09/03 10:18:53;;;;;;;8.85;2.95;;;;;;;25.70;37.67;101169.84;5013801;28;20385;-69
2022/09/03 10:21:25;;;;;;;7.15;2.50;;;;;;;25.64;37.28;101171.00;5028584;28;20108;-69
2022/09/03 10:24:16;;;;;;;9.32;2.60;;;;;;;25.81;36.96;101175.09;5028374;28;20660;-69
2022/09/03 10:26:44;;;;;;;6.78;2.75;;;;;;;26.07;36.48;101175.81;5023710;28;20036;-69
2022/09/03 10:29:12;;;;;;;29.05;4.05;;;;;;;25.92;36.72;101178.75;5026233;28;20029;-69
2022/09/03 10:31:46;;;;;;;12.20;3.13;;;;;;;26.05;36.48;101178.94;5027649;28;20030;-69
2022/09/03 10:34:36;;;;;;;4.30;2.45;;;;;;;26.25;35.51;101178.78;5030208;28;20195;-69
2022/09/03 10:37:13;;;;;;;4.60;2.40;;;;;;;26.13;35.77;101178.31;5012072;28;20061;-69
2022/09/03 10:39:52;;;;;;;7.65;2.55;;;;;;;26.19;35.68;101179.13;5017107;28;20075;-69
2022/09/03 10:42:43;;;;;;;6.30;3.17;;;;;;;26.48;35.24;101180.00;5023923;28;20132;-69
2022/09/03 10:45:27;;;;;;;4.63;2.55;;;;;;;26.49;34.55;101171.28;5030851;28;20568;-69
2022/09/03 10:48:05;;;;;;;17.92;2.95;;;;;;;26.65;33.53;101175.66;5013816;28;20029;-69
2022/09/03 10:50:43;;;;;;;5.18;2.53;;;;;;;26.65;34.72;101172.00;5018913;28;20071;-69
2022/09/03 10:53:36;;;;;;;8.38;2.97;;;;;;;27.16;34.30;101179.63;5025282;28;20437;-69
2022/09/03 10:56:11;;;;;;;4.47;2.20;;;;;;;27.40;33.06;101172.06;5023176;28;20079;-68
2022/09/03 10:58:57;;;;;;;6.97;2.83;;;;;;;27.42;34.54;101171.75;5030048;28;20040;-69
2022/09/03 11:01:54;;;;;;;6.43;2.90;;;;;;;27.49;33.93;101172.22;5024210;28;20041;-69
2022/09/03 11:04:31;;;;;;;9.85;3.45;;;;;;;27.75;33.56;101173.56;5029177;28;20032;-69
2022/09/03 11:07:31;;;;;;;22.75;4.90;;;;;;;27.81;33.23;101169.56;5030991;28;20029;-68
2022/09/03 11:10:18;;;;;;;9.27;2.70;;;;;;;27.95;32.51;101173.31;5021141;28;20648;-69
2022/09/03 11:12:49;;;;;;;8.32;2.30;;;;;;;27.82;33.17;101180.53;5023825;28;20034;-68
2022/09/03 11:15:23;;;;;;;5.35;2.78;;;;;;;27.83;33.42;101172.91;5024801;28;20045;-68
2022/09/03 11:18:01;;;;;;;6.60;2.90;;;;;;;28.06;33.54;101170.03;5025665;28;20033;-69
2022/09/03 11:20:26;;;;;;;14.48;2.90;;;;;;;28.06;33.68;101172.03;5029945;28;20045;-69
2022/09/03 11:22:56;;;;;;;14.90;3.10;;;;;;;28.19;33.04;101171.25;5028208;28;20033;-69
2022/09/03 11:25:27;;;;;;;21.08;2.60;;;;;;;28.32;32.19;101162.84;5021857;28;20045;-68
2022/09/03 11:28:07;;;;;;;7.53;2.53;;;;;;;28.56;31.63;101171.22;5024378;28;20080;-68
2022/09/03 11:31:24;;;;;;;9.02;2.35;;;;;;;28.52;33.01;101176.63;5019799;28;20523;-68
2022/09/03 11:34:13;;;;;;;15.52;2.67;;;;;;;28.78;31.91;101174.19;4990726;28;20052;-68
2022/09/03 11:36:40;;;;;;;7.38;2.60;;;;;;;28.21;32.27;101183.03;5024790;28;20025;-69
2022/09/03 11:39:22;;;;;;;10.50;2.28;;;;;;;28.62;31.37;101172.78;5023455;28;20030;-69
2022/09/03 11:42:08;;;;;;;12.20;3.03;;;;;;;28.59;31.97;101164.97;5024079;28;20076;-68
2022/09/03 11:44:38;;;;;;;9.43;2.42;;;;;;;28.65;31.73;101166.56;5026587;28;20029;-68
2022/09/03 11:47:22;;;;;;;8.20;2.70;;;;;;;28.50;31.36;101172.44;5028830;28;20028;-68
2022/09/03 11:49:49;;;;;;;8.75;2.10;;;;;;;28.21;31.34;101166.13;5028372;28;20041;-67